createdAt,value
2018-12-02T00:00:39.048Z,66.88
2018-12-02T00:03:08.994Z,67.18
2018-12-02T00:05:38.568Z,67.15
2018-12-02T00:08:13.106Z,66.67
2018-12-02T00:10:41.999Z,66.54
2018-12-02T00:13:10.866Z,66.87
2018-12-02T00:15:40.787Z,66.70
2018-12-02T00:18:11.755Z,66.49
2018-12-02T00:20:40.788Z,67.03
2018-12-02T00:23:10.077Z,67.17
2018-12-02T00:25:38.958Z,66.68
2018-12-02T00:28:09.158Z,66.97
2018-12-02T00:30:38.235Z,66.97
2018-12-02T00:33:07.571Z,67.49
2018-12-02T00:35:36.478Z,67.25
2018-12-02T00:38:06.914Z,67.29
2018-12-02T00:40:35.837Z,67.48
2018-12-02T00:43:05.857Z,66.80
2018-12-02T00:45:35.811Z,67.37
2018-12-02T00:48:06.426Z,67.37
2018-12-02T00:50:35.507Z,67.53
2018-12-02T00:53:04.694Z,67.70
2018-12-02T00:55:36.083Z,67.72
2018-12-02T00:58:05.157Z,67.97
2018-12-02T01:00:34.066Z,67.63
2018-12-02T01:03:03.052Z,67.82
2018-12-02T01:05:31.946Z,67.72
2018-12-02T01:08:00.866Z,67.47
2018-12-02T01:10:29.734Z,67.63
2018-12-02T01:12:59.309Z,67.44
2018-12-02T01:15:31.623Z,67.10
2018-12-02T01:18:00.532Z,67.43
2018-12-02T01:20:29.439Z,66.94
2018-12-02T01:22:58.324Z,67.09
2018-12-02T01:25:27.219Z,66.84
2018-12-02T01:27:56.172Z,66.53
2018-12-02T01:30:25.650Z,66.37
2018-12-02T01:32:55.260Z,66.15
2018-12-02T01:35:24.218Z,66.53
2018-12-02T01:37:53.107Z,66.50
2018-12-02T01:40:23.057Z,66.88
2018-12-02T01:42:52.902Z,65.99
2018-12-02T01:45:24.491Z,66.13
2018-12-02T01:47:55.478Z,66.20
2018-12-02T01:50:25.403Z,66.20
2018-12-02T01:52:56.190Z,66.14
2018-12-02T01:55:25.099Z,66.01
2018-12-02T01:57:53.989Z,65.95
2018-12-02T02:00:24.799Z,65.71
2018-12-02T02:02:54.251Z,65.83
2018-12-02T02:05:23.876Z,65.95
2018-12-02T02:07:52.761Z,66.27
2018-12-02T02:10:23.475Z,66.18
2018-12-02T02:12:52.388Z,66.16
2018-12-02T02:15:21.372Z,65.60
2018-12-02T02:17:50.243Z,66.07
2018-12-02T02:20:23.152Z,66.02
2018-12-02T02:22:52.033Z,66.15
2018-12-02T02:25:21.849Z,66.22
2018-12-02T02:27:54.808Z,66.28
2018-12-02T02:30:24.759Z,66.44
2018-12-02T02:32:53.642Z,66.12
2018-12-02T02:35:22.836Z,66.00
2018-12-02T02:37:53.668Z,65.98
2018-12-02T02:40:29.913Z,65.56
2018-12-02T02:42:58.779Z,65.84
2018-12-02T02:45:27.678Z,66.16
2018-12-02T02:47:56.545Z,66.16
2018-12-02T02:50:26.003Z,66.30
2018-12-02T02:52:58.656Z,66.12
2018-12-02T02:55:27.556Z,66.12
2018-12-02T02:57:56.639Z,66.27
2018-12-02T03:00:26.490Z,66.03
2018-12-02T03:02:55.359Z,65.68
2018-12-02T03:05:24.250Z,65.04
2018-12-02T03:07:53.108Z,65.09
2018-12-02T03:10:22.378Z,65.94
2018-12-02T03:12:53.186Z,65.52
2018-12-02T03:15:22.803Z,65.16
2018-12-02T03:17:51.735Z,65.68
2018-12-02T03:20:21.488Z,65.97
2018-12-02T03:22:52.426Z,65.99
2018-12-02T03:25:22.240Z,66.07
2018-12-02T03:27:51.115Z,66.12
2018-12-02T03:30:21.952Z,66.03
2018-12-02T03:32:50.774Z,65.87
2018-12-02T03:35:25.467Z,66.21
2018-12-02T03:37:55.406Z,66.32
2018-12-02T03:40:25.312Z,66.25
2018-12-02T03:42:54.202Z,66.29
2018-12-02T03:45:25.026Z,66.71
2018-12-02T03:47:53.910Z,66.32
2018-12-02T03:50:23.490Z,66.64
2018-12-02T03:52:52.395Z,66.89
2018-12-02T03:55:21.271Z,66.66
2018-12-02T03:57:50.247Z,66.44
2018-12-02T04:00:20.729Z,66.83
2018-12-02T04:02:49.829Z,67.24
2018-12-02T04:05:20.692Z,67.16
2018-12-02T04:07:50.085Z,67.39
2018-12-02T04:10:19.447Z,67.32
2018-12-02T04:12:50.228Z,66.98
2018-12-02T04:15:24.068Z,67.29
2018-12-02T04:17:53.056Z,67.25
2018-12-02T04:20:22.051Z,67.18
2018-12-02T04:22:51.855Z,66.90
2018-12-02T04:25:23.756Z,67.17
2018-12-02T04:27:52.843Z,67.04
2018-12-02T04:30:22.403Z,67.23
2018-12-02T04:32:52.086Z,66.96
2018-12-02T04:35:24.803Z,67.35
2018-12-02T04:37:53.752Z,67.03
2018-12-02T04:40:22.659Z,67.07
2018-12-02T04:42:51.550Z,66.83
2018-12-02T04:45:20.630Z,66.53
2018-12-02T04:47:49.680Z,66.17
2018-12-02T04:50:23.211Z,66.54
2018-12-02T04:52:52.131Z,67.04
2018-12-02T04:55:21.011Z,66.00
2018-12-02T04:57:49.910Z,65.99
2018-12-02T05:00:19.779Z,66.52
2018-12-02T05:02:52.413Z,66.59
2018-12-02T05:05:22.319Z,66.67
2018-12-02T05:07:51.288Z,66.38
2018-12-02T05:10:20.946Z,66.73
2018-12-02T05:12:50.759Z,66.18
2018-12-02T05:15:20.655Z,66.03
2018-12-02T05:17:49.573Z,66.66
2018-12-02T05:20:20.147Z,66.87
2018-12-02T05:22:49.029Z,66.75
2018-12-02T05:25:18.640Z,67.13
2018-12-02T05:27:47.174Z,66.64
2018-12-02T05:30:17.958Z,66.97
2018-12-02T05:32:47.669Z,66.84
2018-12-02T05:35:16.581Z,66.90
2018-12-02T05:37:45.502Z,66.99
2018-12-02T05:40:17.302Z,67.30
2018-12-02T05:42:46.251Z,67.17
2018-12-02T05:45:17.049Z,67.21
2018-12-02T05:47:46.055Z,66.71
2018-12-02T05:50:22.596Z,67.05
2018-12-02T05:52:58.154Z,67.70
2018-12-02T05:55:31.330Z,67.67
2018-12-02T05:58:00.210Z,67.68
2018-12-02T06:00:29.078Z,67.81
2018-12-02T06:02:57.963Z,67.61
2018-12-02T06:05:26.832Z,68.61
2018-12-02T06:07:55.744Z,68.70
2018-12-02T06:10:24.670Z,68.99
2018-12-02T06:12:53.565Z,69.32
2018-12-02T06:15:22.455Z,69.84
2018-12-02T06:17:51.415Z,70.33
2018-12-02T06:20:24.303Z,70.66
2018-12-02T06:22:56.140Z,71.29
2018-12-02T06:25:26.097Z,71.88
2018-12-02T06:27:54.999Z,72.48
2018-12-02T06:30:24.823Z,72.55
2018-12-02T06:32:57.822Z,72.20
2018-12-02T06:35:26.703Z,72.63
2018-12-02T06:37:56.439Z,73.24
2018-12-02T06:40:26.435Z,73.60
2018-12-02T06:42:55.320Z,73.32
2018-12-02T06:45:24.223Z,73.71
2018-12-02T06:47:53.153Z,74.44
2018-12-02T06:50:24.043Z,74.64
2018-12-02T06:52:53.427Z,74.30
2018-12-02T06:55:35.307Z,74.39
2018-12-02T06:58:09.475Z,74.40
2018-12-02T07:01:47.477Z,74.51
2018-12-02T07:04:23.535Z,75.11
2018-12-02T07:06:52.426Z,74.89
2018-12-02T07:09:21.335Z,74.90
2018-12-02T07:11:50.252Z,74.66
2018-12-02T07:14:19.175Z,74.90
2018-12-02T07:16:48.111Z,74.81
2018-12-02T07:19:18.958Z,74.20
2018-12-02T07:21:49.887Z,74.65
2018-12-02T07:24:19.063Z,74.48
2018-12-02T07:26:47.959Z,73.98
2018-12-02T07:29:16.844Z,74.49
2018-12-02T07:31:45.742Z,74.48
2018-12-02T07:34:30.354Z,74.29
2018-12-02T07:37:21.688Z,74.83
2018-12-02T07:40:18.331Z,75.37
2018-12-02T07:42:47.207Z,75.62
2018-12-02T07:45:16.095Z,75.46
2018-12-02T07:47:44.954Z,75.69
2018-12-02T07:50:13.840Z,75.76
2018-12-02T07:52:42.717Z,75.72
2018-12-02T07:55:11.604Z,75.31
2018-12-02T07:57:40.481Z,75.14
2018-12-02T08:00:13.356Z,75.16
2018-12-02T08:02:42.232Z,75.44
2018-12-02T08:05:12.252Z,75.90
2018-12-02T08:07:41.656Z,75.62
2018-12-02T08:10:15.373Z,75.88
2018-12-02T08:12:44.295Z,76.00
2018-12-02T08:15:15.408Z,76.32
2018-12-02T08:17:44.339Z,75.93
2018-12-02T08:20:14.311Z,75.90
2018-12-02T08:22:43.294Z,75.71
2018-12-02T08:25:14.788Z,75.58
2018-12-02T08:27:43.659Z,75.16
2018-12-02T08:30:15.820Z,75.46
2018-12-02T08:32:44.693Z,75.72
2018-12-02T08:35:14.733Z,76.10
2018-12-02T08:37:44.835Z,76.52
2018-12-02T08:40:13.775Z,76.05
2018-12-02T08:42:42.684Z,75.51
2018-12-02T08:45:14.656Z,75.67
2018-12-02T08:47:44.176Z,76.28
2018-12-02T08:50:15.112Z,76.07
2018-12-02T08:52:44.242Z,75.76
2018-12-02T08:55:14.329Z,76.08
2018-12-02T08:57:43.212Z,75.32
2018-12-02T09:00:13.437Z,75.59
2018-12-02T09:02:42.857Z,76.45
2018-12-02T09:05:12.862Z,76.90
2018-12-02T09:07:41.747Z,77.50
2018-12-02T09:10:13.192Z,77.47
2018-12-02T09:12:42.191Z,76.98
2018-12-02T09:15:12.115Z,77.07
2018-12-02T09:17:41.048Z,76.75
2018-12-02T22:01:24.267Z,75.67
2018-12-02T22:03:53.153Z,75.38
2018-12-02T22:06:22.511Z,75.15
2018-12-02T22:08:51.443Z,75.14
2018-12-02T22:11:20.424Z,75.20
2018-12-02T22:13:49.303Z,74.64
2018-12-02T22:16:18.225Z,74.31
2018-12-02T22:18:47.115Z,74.61
2018-12-02T22:21:18.115Z,73.97
2018-12-02T22:23:47.003Z,73.96
2018-12-02T22:26:15.939Z,74.42
2018-12-02T22:28:44.907Z,74.12
2018-12-02T22:31:13.807Z,74.01
2018-12-02T22:33:42.693Z,73.70
2018-12-02T22:36:14.137Z,73.52
2018-12-02T22:38:40.595Z,73.93
2018-12-02T22:41:09.511Z,73.95
2018-12-02T22:43:38.410Z,74.21
2018-12-02T22:46:08.918Z,73.90
2018-12-02T22:48:38.331Z,74.57
2018-12-02T22:51:07.255Z,74.48
2018-12-02T22:53:36.167Z,74.26
2018-12-02T22:56:05.127Z,74.33
2018-12-02T22:58:34.039Z,74.27
2018-12-02T23:01:08.260Z,74.29
2018-12-02T23:03:37.183Z,74.41
2018-12-02T23:06:07.191Z,74.54
2018-12-02T23:08:36.096Z,74.59
2018-12-02T23:11:04.970Z,74.56
2018-12-02T23:13:33.887Z,74.87
2018-12-02T23:16:02.871Z,74.83
2018-12-02T23:18:31.765Z,75.62
2018-12-02T23:21:00.648Z,75.46
2018-12-02T23:23:29.543Z,76.26
2018-12-02T23:25:58.407Z,76.25
2018-12-02T23:28:27.303Z,75.61
2018-12-02T23:30:56.175Z,76.17
2018-12-02T23:33:25.089Z,75.71
2018-12-02T23:35:53.942Z,75.70
2018-12-02T23:38:22.824Z,75.61
2018-12-02T23:40:51.699Z,75.50
2018-12-02T23:43:20.591Z,75.57
2018-12-02T23:45:49.455Z,76.06
2018-12-02T23:48:18.351Z,76.79
2018-12-02T23:50:47.232Z,76.44
2018-12-02T23:53:16.135Z,76.03
2018-12-02T23:55:45.007Z,76.94
2018-12-02T23:58:13.891Z,76.89
